DLH2016 EDDF-EGLL
Flight info
| Callsign | DLH2016 |
|---|---|
| Flight time | N/A |
| Altitude | 40000 |
| Route | OBOKA4S OBOKA Z29 TORNU DCT ABNED L980 LOGAN |
| Aircraft | A359/H-SDE2E3GHIJ3J4J5LM1ORWXY/LB1D1 |
Departure
| Time | 2026-05-04 00:45 |
|---|---|
| Airport | Frankfurt Main Airport (EDDF) |
Arrival
| Time | N/A |
|---|---|
| Airport | London Heathrow Airport (EGLL) |
| Time | Latitude | Longitude | Altitude | Speed | Heading |
|---|---|---|---|---|---|
| 2026-05-04 00:31 | 50.04763 | 8.56385 | 362 ft | 0 kts | 340° |
| 2026-05-04 00:36 | 50.04752 | 8.56391 | 369 ft | 0 kts | 340° |
| 2026-05-04 00:36 | 50.04744 | 8.56395 | 368 ft | 3 kts | 340° |
| 2026-05-04 00:36 | 50.04726 | 8.56405 | 366 ft | 3 kts | 340° |
| 2026-05-04 00:36 | 50.04709 | 8.56415 | 366 ft | 2 kts | 340° |
| 2026-05-04 00:37 | 50.04694 | 8.56424 | 366 ft | 2 kts | 340° |
| 2026-05-04 00:37 | 50.04683 | 8.56429 | 367 ft | 0 kts | 339° |
| 2026-05-04 00:37 | 50.04683 | 8.56430 | 367 ft | 2 kts | 339° |
| 2026-05-04 00:38 | 50.04667 | 8.56440 | 366 ft | 3 kts | 325° |
| 2026-05-04 00:38 | 50.04654 | 8.56459 | 366 ft | 3 kts | 306° |
| 2026-05-04 00:38 | 50.04645 | 8.56482 | 369 ft | 3 kts | 287° |
| 2026-05-04 00:38 | 50.04642 | 8.56509 | 366 ft | 3 kts | 267° |
| 2026-05-04 00:39 | 50.04644 | 8.56530 | 368 ft | 0 kts | 252° |
| 2026-05-04 00:40 | 50.04644 | 8.56528 | 368 ft | 2 kts | 252° |
| 2026-05-04 00:40 | 50.04622 | 8.56496 | 368 ft | 7 kts | 211° |
| 2026-05-04 00:40 | 50.04545 | 8.56424 | 367 ft | 18 kts | 211° |
| 2026-05-04 00:41 | 50.04492 | 8.56274 | 365 ft | 20 kts | 250° |
| 2026-05-04 00:41 | 50.04429 | 8.56031 | 369 ft | 27 kts | 243° |
| 2026-05-04 00:41 | 50.04277 | 8.55940 | 361 ft | 22 kts | 200° |
| 2026-05-04 00:41 | 50.04191 | 8.55736 | 368 ft | 27 kts | 248° |
| 2026-05-04 00:42 | 50.04112 | 8.55424 | 362 ft | 34 kts | 248° |
| 2026-05-04 00:42 | 50.04027 | 8.55062 | 364 ft | 38 kts | 250° |
| 2026-05-04 00:42 | 50.03928 | 8.54647 | 360 ft | 43 kts | 248° |
| 2026-05-04 00:42 | 50.03796 | 8.54200 | 360 ft | 47 kts | 248° |
| 2026-05-04 00:43 | 50.03674 | 8.53703 | 353 ft | 52 kts | 249° |
| 2026-05-04 00:43 | 50.03545 | 8.53167 | 353 ft | 56 kts | 249° |
| 2026-05-04 00:43 | 50.03433 | 8.52726 | 352 ft | 14 kts | 244° |
| 2026-05-04 00:43 | 50.03369 | 8.52609 | 349 ft | 14 kts | 207° |
| 2026-05-04 00:44 | 50.03304 | 8.52597 | 352 ft | 0 kts | 179° |
| 2026-05-04 00:44 | 50.03133 | 8.52601 | 344 ft | 64 kts | 179° |
| 2026-05-04 00:44 | 50.02441 | 8.52609 | 349 ft | 134 kts | 181° |
| 2026-05-04 00:44 | 50.01320 | 8.52646 | 562 ft | 176 kts | 177° |
| 2026-05-04 00:45 | 50.00101 | 8.52735 | 1317 ft | 176 kts | 177° |
| 2026-05-04 00:45 | 49.98824 | 8.52749 | 1957 ft | 196 kts | 185° |
| 2026-05-04 00:45 | 49.97512 | 8.52045 | 2600 ft | 209 kts | 214° |
| 2026-05-04 00:45 | 49.96335 | 8.50471 | 3083 ft | 236 kts | 225° |
| 2026-05-04 00:46 | 49.95173 | 8.48632 | 4070 ft | 235 kts | 226° |
| 2026-05-04 00:46 | 49.94049 | 8.46870 | 5276 ft | 230 kts | 226° |
| 2026-05-04 00:46 | 49.92868 | 8.45043 | 5868 ft | 253 kts | 226° |
| 2026-05-04 00:46 | 49.91541 | 8.43017 | 6256 ft | 282 kts | 225° |
| 2026-05-04 00:47 | 49.90096 | 8.40844 | 6823 ft | 301 kts | 225° |
| 2026-05-04 00:47 | 49.88708 | 8.38367 | 7723 ft | 308 kts | 237° |
| 2026-05-04 00:47 | 49.87890 | 8.35291 | 8773 ft | 314 kts | 257° |
| 2026-05-04 00:47 | 49.87900 | 8.31889 | 9815 ft | 324 kts | 279° |
| 2026-05-04 00:48 | 49.88776 | 8.28617 | 10751 ft | 335 kts | 298° |
| 2026-05-04 00:48 | 49.90047 | 8.25542 | 11654 ft | 342 kts | 300° |
| 2026-05-04 00:48 | 49.91374 | 8.22438 | 12580 ft | 348 kts | 300° |
| 2026-05-04 00:48 | 49.92692 | 8.19316 | 13496 ft | 353 kts | 300° |
| 2026-05-04 00:49 | 49.94146 | 8.16194 | 14339 ft | 362 kts | 307° |
| 2026-05-04 00:49 | 49.95954 | 8.13447 | 15202 ft | 368 kts | 315° |
| 2026-05-04 00:49 | 49.97909 | 8.10846 | 16061 ft | 371 kts | 316° |
| 2026-05-04 00:49 | 49.99887 | 8.08237 | 16913 ft | 375 kts | 316° |
| 2026-05-04 00:50 | 50.01875 | 8.05600 | 17782 ft | 378 kts | 316° |
| 2026-05-04 00:50 | 50.03889 | 8.02914 | 18593 ft | 383 kts | 316° |
| 2026-05-04 00:50 | 50.05919 | 8.00199 | 19332 ft | 387 kts | 316° |
| 2026-05-04 00:50 | 50.07971 | 7.97448 | 20096 ft | 392 kts | 315° |
| 2026-05-04 00:51 | 50.10020 | 7.94698 | 20888 ft | 396 kts | 315° |
| 2026-05-04 00:51 | 50.12118 | 7.91874 | 21662 ft | 401 kts | 315° |
| 2026-05-04 00:51 | 50.14239 | 7.89016 | 22391 ft | 406 kts | 315° |
| 2026-05-04 00:51 | 50.16385 | 7.86122 | 23152 ft | 410 kts | 315° |
| 2026-05-04 00:52 | 50.18557 | 7.83190 | 23831 ft | 415 kts | 314° |
| 2026-05-04 00:52 | 50.20748 | 7.80229 | 24490 ft | 418 kts | 314° |
| 2026-05-04 00:52 | 50.22954 | 7.77246 | 25222 ft | 420 kts | 314° |
| 2026-05-04 00:52 | 50.25262 | 7.74430 | 25916 ft | 426 kts | 321° |
| 2026-05-04 00:53 | 50.27877 | 7.72154 | 26629 ft | 433 kts | 330° |
| 2026-05-04 00:53 | 50.30633 | 7.70231 | 27307 ft | 436 kts | 332° |
| 2026-05-04 00:53 | 50.33391 | 7.68363 | 27974 ft | 439 kts | 331° |
| 2026-05-04 00:53 | 50.36193 | 7.66459 | 28652 ft | 441 kts | 331° |
| 2026-05-04 00:54 | 50.39011 | 7.64540 | 29335 ft | 443 kts | 331° |
| 2026-05-04 00:54 | 50.41844 | 7.62597 | 29973 ft | 445 kts | 331° |
| 2026-05-04 00:54 | 50.44688 | 7.60641 | 30487 ft | 448 kts | 331° |
| 2026-05-04 00:54 | 50.47555 | 7.58663 | 30836 ft | 454 kts | 331° |
| 2026-05-04 00:55 | 50.50477 | 7.56646 | 31187 ft | 460 kts | 331° |
| 2026-05-04 00:55 | 50.52422 | 7.55303 | 31453 ft | 464 kts | 331° |
| 2026-05-04 00:55 | 50.56267 | 7.52398 | 31940 ft | 466 kts | 325° |
| 2026-05-04 00:55 | 50.59035 | 7.49684 | 32311 ft | 468 kts | 322° |
| 2026-05-04 00:56 | 50.61773 | 7.46881 | 32691 ft | 473 kts | 322° |
| 2026-05-04 00:56 | 50.64543 | 7.44038 | 33042 ft | 477 kts | 322° |
| 2026-05-04 00:56 | 50.67340 | 7.41168 | 33388 ft | 481 kts | 323° |
| 2026-05-04 00:56 | 50.70141 | 7.38247 | 33714 ft | 484 kts | 321° |
| 2026-05-04 00:57 | 50.72747 | 7.34939 | 34034 ft | 483 kts | 313° |
| 2026-05-04 00:57 | 50.74294 | 7.32398 | 34232 ft | 482 kts | 306° |
| 2026-05-04 00:57 | 50.76810 | 7.26681 | 34702 ft | 476 kts | 295° |
| 2026-05-04 00:57 | 50.78379 | 7.22094 | 35184 ft | 474 kts | 294° |
| 2026-05-04 00:58 | 50.79881 | 7.17508 | 35644 ft | 472 kts | 293° |
| 2026-05-04 00:58 | 50.80862 | 7.14461 | 35939 ft | 471 kts | 293° |
| 2026-05-04 00:58 | 50.82852 | 7.08241 | 36460 ft | 471 kts | 293° |
| 2026-05-04 00:58 | 50.84334 | 7.03609 | 36832 ft | 471 kts | 293° |
| 2026-05-04 00:59 | 50.85312 | 7.00561 | 37088 ft | 471 kts | 293° |
| 2026-05-04 00:59 | 50.86796 | 6.95941 | 37471 ft | 470 kts | 292° |
| 2026-05-04 00:59 | 50.88282 | 6.91336 | 37839 ft | 470 kts | 293° |
| 2026-05-04 00:59 | 50.89767 | 6.86720 | 38170 ft | 470 kts | 292° |
| 2026-05-04 01:00 | 50.91725 | 6.80614 | 38622 ft | 470 kts | 292° |
| 2026-05-04 01:00 | 50.92724 | 6.77493 | 38805 ft | 470 kts | 292° |
| 2026-05-04 01:00 | 50.94206 | 6.72856 | 39045 ft | 471 kts | 292° |
| 2026-05-04 01:00 | 50.95683 | 6.68224 | 39280 ft | 471 kts | 292° |
| 2026-05-04 01:01 | 50.97144 | 6.63639 | 39525 ft | 472 kts | 292° |
| 2026-05-04 01:01 | 50.98622 | 6.58990 | 39756 ft | 472 kts | 293° |
| 2026-05-04 01:01 | 51.00092 | 6.54359 | 39933 ft | 474 kts | 293° |
| 2026-05-04 01:02 | 51.03069 | 6.44951 | 39968 ft | 475 kts | 293° |
| 2026-05-04 01:02 | 51.06019 | 6.35601 | 39965 ft | 475 kts | 292° |
| 2026-05-04 01:03 | 51.08975 | 6.26189 | 39966 ft | 475 kts | 292° |
| 2026-05-04 01:03 | 51.11904 | 6.16826 | 39968 ft | 475 kts | 292° |
| 2026-05-04 01:04 | 51.12858 | 6.13743 | 39963 ft | 475 kts | 291° |
| 2026-05-04 01:04 | 51.14222 | 6.08169 | 39964 ft | 470 kts | 282° |
| 2026-05-04 01:05 | 51.15991 | 5.98151 | 39969 ft | 469 kts | 281° |
| 2026-05-04 01:05 | 51.17607 | 5.88152 | 39966 ft | 469 kts | 281° |
| 2026-05-04 01:06 | 51.19717 | 5.78261 | 39952 ft | 473 kts | 288° |
| 2026-05-04 01:06 | 51.22226 | 5.68554 | 39952 ft | 474 kts | 289° |
| 2026-05-04 01:07 | 51.24193 | 5.61122 | 39945 ft | 474 kts | 289° |
| 2026-05-04 01:07 | 51.26741 | 5.51475 | 39944 ft | 475 kts | 289° |
| 2026-05-04 01:08 | 51.29287 | 5.41751 | 39943 ft | 475 kts | 289° |
| 2026-05-04 01:08 | 51.31819 | 5.32012 | 39942 ft | 475 kts | 288° |
| 2026-05-04 01:09 | 51.34346 | 5.22244 | 39943 ft | 475 kts | 288° |
| 2026-05-04 01:09 | 51.36846 | 5.12539 | 39945 ft | 476 kts | 288° |
| 2026-05-04 01:10 | 51.39362 | 5.02731 | 39943 ft | 476 kts | 288° |
| 2026-05-04 01:10 | 51.41868 | 4.92923 | 39945 ft | 477 kts | 288° |
| 2026-05-04 01:11 | 51.44372 | 4.83077 | 39937 ft | 477 kts | 288° |
| 2026-05-04 01:11 | 51.46870 | 4.73212 | 39937 ft | 477 kts | 288° |
| 2026-05-04 01:12 | 51.49340 | 4.63415 | 39940 ft | 477 kts | 288° |
| 2026-05-04 01:12 | 51.51820 | 4.53535 | 39938 ft | 478 kts | 288° |
| 2026-05-04 01:13 | 51.54298 | 4.43618 | 39939 ft | 478 kts | 288° |
| 2026-05-04 01:13 | 51.56747 | 4.33774 | 39938 ft | 478 kts | 288° |
| 2026-05-04 01:14 | 51.59204 | 4.23852 | 39940 ft | 478 kts | 288° |
| 2026-05-04 01:14 | 51.61410 | 4.14910 | 39938 ft | 478 kts | 288° |
| 2026-05-04 01:15 | 51.63853 | 4.04960 | 39940 ft | 478 kts | 288° |
| 2026-05-04 01:15 | 51.66291 | 3.94986 | 39935 ft | 478 kts | 288° |
| 2026-05-04 01:16 | 51.68700 | 3.85087 | 39936 ft | 478 kts | 288° |
| 2026-05-04 01:16 | 51.71121 | 3.75094 | 39932 ft | 478 kts | 288° |
| 2026-05-04 01:17 | 51.73537 | 3.65074 | 39932 ft | 479 kts | 288° |
| 2026-05-04 01:17 | 51.75931 | 3.55098 | 39938 ft | 479 kts | 288° |
| 2026-05-04 01:18 | 51.78329 | 3.45064 | 39939 ft | 479 kts | 288° |
| 2026-05-04 01:18 | 51.80704 | 3.35078 | 39935 ft | 479 kts | 288° |
| 2026-05-04 01:19 | 51.83074 | 3.25017 | 39925 ft | 478 kts | 287° |
| 2026-05-04 01:19 | 51.84433 | 3.14600 | 39938 ft | 471 kts | 271° |
| 2026-05-04 01:20 | 51.84154 | 3.04141 | 39930 ft | 469 kts | 263° |
| 2026-05-04 01:20 | 51.83465 | 2.93648 | 39933 ft | 469 kts | 262° |
| 2026-05-04 01:21 | 51.82722 | 2.83163 | 39933 ft | 470 kts | 262° |
| 2026-05-04 01:21 | 51.81999 | 2.72740 | 39936 ft | 470 kts | 262° |
| 2026-05-04 01:22 | 51.81285 | 2.62257 | 39807 ft | 466 kts | 262° |
| 2026-05-04 01:22 | 51.80930 | 2.57066 | 39150 ft | 467 kts | 262° |
| 2026-05-04 01:22 | 51.80566 | 2.51830 | 38348 ft | 470 kts | 262° |
| 2026-05-04 01:22 | 51.80198 | 2.46585 | 37492 ft | 471 kts | 261° |
| 2026-05-04 01:23 | 51.79827 | 2.41325 | 36728 ft | 469 kts | 261° |
| 2026-05-04 01:23 | 51.79457 | 2.36102 | 35979 ft | 467 kts | 261° |
| 2026-05-04 01:23 | 51.79090 | 2.30958 | 35240 ft | 465 kts | 261° |
| 2026-05-04 01:23 | 51.78723 | 2.25821 | 34363 ft | 453 kts | 260° |
| 2026-05-04 01:24 | 51.78369 | 2.20831 | 32910 ft | 445 kts | 260° |
| 2026-05-04 01:24 | 51.78074 | 2.15945 | 32090 ft | 426 kts | 261° |
| 2026-05-04 01:24 | 51.77806 | 2.11216 | 31308 ft | 425 kts | 261° |
| 2026-05-04 01:24 | 51.77527 | 2.06442 | 30556 ft | 427 kts | 261° |
| 2026-05-04 01:25 | 51.77248 | 2.01695 | 30016 ft | 415 kts | 261° |
| 2026-05-04 01:25 | 51.76975 | 1.97086 | 29386 ft | 415 kts | 261° |
| 2026-05-04 01:25 | 51.76691 | 1.92414 | 28829 ft | 421 kts | 261° |
| 2026-05-04 01:25 | 51.76406 | 1.87727 | 28212 ft | 417 kts | 261° |
| 2026-05-04 01:26 | 51.76128 | 1.83156 | 27653 ft | 413 kts | 261° |
| 2026-05-04 01:26 | 51.75847 | 1.78575 | 27078 ft | 409 kts | 261° |
| 2026-05-04 01:26 | 51.75566 | 1.74031 | 26521 ft | 405 kts | 261° |
| 2026-05-04 01:26 | 51.75284 | 1.69513 | 25951 ft | 403 kts | 261° |
| 2026-05-04 01:27 | 51.75003 | 1.65026 | 25380 ft | 402 kts | 262° |
| 2026-05-04 01:27 | 51.74721 | 1.60548 | 24821 ft | 399 kts | 262° |
| 2026-05-04 01:27 | 51.74436 | 1.56027 | 24287 ft | 413 kts | 262° |
| 2026-05-04 01:27 | 51.74136 | 1.51376 | 23674 ft | 419 kts | 262° |
| 2026-05-04 01:28 | 51.73836 | 1.46718 | 22916 ft | 417 kts | 262° |
| 2026-05-04 01:28 | 51.73542 | 1.42161 | 22285 ft | 411 kts | 262° |
| 2026-05-04 01:28 | 51.73246 | 1.37599 | 21675 ft | 407 kts | 262° |
| 2026-05-04 01:28 | 51.72949 | 1.33067 | 21063 ft | 405 kts | 262° |
| 2026-05-04 01:29 | 51.72652 | 1.28554 | 20456 ft | 403 kts | 262° |
| 2026-05-04 01:29 | 51.72355 | 1.24078 | 19856 ft | 401 kts | 262° |
| 2026-05-04 01:29 | 51.72058 | 1.19623 | 19260 ft | 398 kts | 262° |
| 2026-05-04 01:29 | 51.71762 | 1.15202 | 18666 ft | 396 kts | 262° |
| 2026-05-04 01:30 | 51.71469 | 1.10856 | 18057 ft | 393 kts | 262° |
| 2026-05-04 01:30 | 51.71173 | 1.06486 | 17433 ft | 391 kts | 262° |
| 2026-05-04 01:30 | 51.70878 | 1.02152 | 16831 ft | 387 kts | 262° |
| 2026-05-04 01:30 | 51.70586 | 0.97872 | 16271 ft | 384 kts | 262° |
| 2026-05-04 01:31 | 51.70293 | 0.93600 | 15765 ft | 380 kts | 262° |
| 2026-05-04 01:31 | 51.70004 | 0.89372 | 15593 ft | 380 kts | 262° |
| 2026-05-04 01:31 | 51.69708 | 0.85149 | 15376 ft | 378 kts | 262° |
| 2026-05-04 01:31 | 51.69413 | 0.80949 | 15145 ft | 377 kts | 262° |
| 2026-05-04 01:32 | 51.69118 | 0.76770 | 14909 ft | 375 kts | 262° |
| 2026-05-04 01:32 | 51.68826 | 0.72653 | 14677 ft | 374 kts | 262° |
| 2026-05-04 01:32 | 51.68531 | 0.68504 | 14497 ft | 367 kts | 262° |
| 2026-05-04 01:32 | 51.68251 | 0.64505 | 14301 ft | 352 kts | 262° |
| 2026-05-04 01:33 | 51.67976 | 0.60659 | 14095 ft | 338 kts | 262° |
| 2026-05-04 01:33 | 51.67708 | 0.56965 | 13902 ft | 326 kts | 261° |
| 2026-05-04 01:33 | 51.67449 | 0.53409 | 13725 ft | 314 kts | 261° |
| 2026-05-04 01:33 | 51.67199 | 0.49978 | 13510 ft | 303 kts | 261° |
| 2026-05-04 01:34 | 51.66958 | 0.46653 | 13237 ft | 295 kts | 261° |
| 2026-05-04 01:34 | 51.66722 | 0.43437 | 13037 ft | 292 kts | 261° |
| 2026-05-04 01:34 | 51.66480 | 0.40195 | 12851 ft | 292 kts | 261° |
| 2026-05-04 01:34 | 51.66238 | 0.36950 | 12668 ft | 291 kts | 261° |
| 2026-05-04 01:35 | 51.65997 | 0.33718 | 12485 ft | 291 kts | 261° |
| 2026-05-04 01:35 | 51.65756 | 0.30489 | 12288 ft | 290 kts | 261° |
| 2026-05-04 01:35 | 51.65515 | 0.27268 | 12106 ft | 289 kts | 261° |
| 2026-05-04 01:35 | 51.65274 | 0.24056 | 11927 ft | 289 kts | 261° |
| 2026-05-04 01:36 | 51.65032 | 0.20851 | 11744 ft | 288 kts | 261° |
| 2026-05-04 01:36 | 51.64790 | 0.17650 | 11564 ft | 287 kts | 261° |
| 2026-05-04 01:36 | 51.64552 | 0.14504 | 11387 ft | 287 kts | 261° |
| 2026-05-04 01:36 | 51.64359 | 0.11310 | 11211 ft | 287 kts | 264° |
| 2026-05-04 01:37 | 51.64199 | 0.08114 | 11034 ft | 286 kts | 264° |
| 2026-05-04 01:37 | 51.64038 | 0.04928 | 10852 ft | 285 kts | 264° |
| 2026-05-04 01:37 | 51.63870 | 0.01743 | 10675 ft | 285 kts | 264° |
| 2026-05-04 01:37 | 51.63701 | -0.01414 | 10497 ft | 284 kts | 264° |
| 2026-05-04 01:38 | 51.63529 | -0.04583 | 10317 ft | 283 kts | 264° |
| 2026-05-04 01:38 | 51.63356 | -0.07743 | 10164 ft | 283 kts | 264° |
| 2026-05-04 01:38 | 51.63182 | -0.10892 | 9988 ft | 282 kts | 264° |
| 2026-05-04 01:38 | 51.63009 | -0.13997 | 9811 ft | 282 kts | 264° |
| 2026-05-04 01:39 | 51.62834 | -0.17135 | 9639 ft | 278 kts | 264° |
| 2026-05-04 01:39 | 51.62665 | -0.20162 | 9496 ft | 266 kts | 264° |
| 2026-05-04 01:39 | 51.62501 | -0.23068 | 9353 ft | 256 kts | 264° |
| 2026-05-04 01:39 | 51.62343 | -0.25854 | 9217 ft | 245 kts | 263° |
| 2026-05-04 01:40 | 51.62191 | -0.28541 | 9095 ft | 236 kts | 263° |
| 2026-05-04 01:40 | 51.62044 | -0.31111 | 8968 ft | 226 kts | 263° |
| 2026-05-04 01:40 | 51.61903 | -0.33551 | 8838 ft | 217 kts | 263° |
| 2026-05-04 01:40 | 51.61767 | -0.35919 | 8734 ft | 208 kts | 263° |
| 2026-05-04 01:41 | 51.61635 | -0.38196 | 8578 ft | 202 kts | 263° |
| 2026-05-04 01:41 | 51.61505 | -0.40430 | 8371 ft | 199 kts | 263° |
| 2026-05-04 01:41 | 51.61376 | -0.42641 | 8230 ft | 199 kts | 263° |
| 2026-05-04 01:41 | 51.61246 | -0.44857 | 8100 ft | 199 kts | 263° |
| 2026-05-04 01:42 | 51.61117 | -0.47064 | 7981 ft | 198 kts | 263° |
| 2026-05-04 01:42 | 51.60987 | -0.49269 | 7857 ft | 198 kts | 263° |
| 2026-05-04 01:42 | 51.60858 | -0.51437 | 7751 ft | 197 kts | 263° |
| 2026-05-04 01:42 | 51.60728 | -0.53632 | 7608 ft | 197 kts | 263° |
| 2026-05-04 01:43 | 51.60598 | -0.55822 | 7503 ft | 197 kts | 263° |
| 2026-05-04 01:43 | 51.60468 | -0.58007 | 7395 ft | 196 kts | 263° |
| 2026-05-04 01:43 | 51.60337 | -0.60194 | 7251 ft | 196 kts | 263° |
| 2026-05-04 01:43 | 51.60207 | -0.62372 | 7141 ft | 196 kts | 263° |
| 2026-05-04 01:44 | 51.60077 | -0.64547 | 7032 ft | 195 kts | 263° |
| 2026-05-04 01:44 | 51.59950 | -0.66716 | 6901 ft | 195 kts | 263° |
| 2026-05-04 01:44 | 51.59820 | -0.68854 | 6790 ft | 194 kts | 263° |
| 2026-05-04 01:44 | 51.59675 | -0.71010 | 6671 ft | 194 kts | 260° |
| 2026-05-04 01:45 | 51.59315 | -0.73082 | 6539 ft | 192 kts | 244° |
| 2026-05-04 01:45 | 51.58574 | -0.74854 | 6377 ft | 191 kts | 226° |
| 2026-05-04 01:45 | 51.56265 | -0.76846 | 5938 ft | 191 kts | 196° |
| 2026-05-04 01:46 | 51.54978 | -0.77385 | 5708 ft | 191 kts | 195° |
| 2026-05-04 01:46 | 51.53695 | -0.77913 | 5480 ft | 190 kts | 195° |
| 2026-05-04 01:46 | 51.52431 | -0.78442 | 5283 ft | 190 kts | 195° |
| 2026-05-04 01:46 | 51.51127 | -0.78760 | 5043 ft | 191 kts | 181° |
| 2026-05-04 01:47 | 51.49839 | -0.78288 | 4768 ft | 193 kts | 155° |
| 2026-05-04 01:47 | 51.48751 | -0.77037 | 4527 ft | 193 kts | 140° |
| 2026-05-04 01:47 | 51.47948 | -0.75310 | 4206 ft | 197 kts | 111° |
| 2026-05-04 01:47 | 51.47589 | -0.73203 | 3967 ft | 196 kts | 96° |
| 2026-05-04 01:48 | 51.47590 | -0.71086 | 3911 ft | 182 kts | 88° |
| 2026-05-04 01:48 | 51.47615 | -0.69150 | 3832 ft | 165 kts | 90° |
| 2026-05-04 01:48 | 51.47624 | -0.67405 | 3677 ft | 150 kts | 91° |
| 2026-05-04 01:48 | 51.47627 | -0.65764 | 3420 ft | 146 kts | 91° |
| 2026-05-04 01:49 | 51.47631 | -0.64162 | 3114 ft | 145 kts | 90° |
| 2026-05-04 01:49 | 51.47639 | -0.62597 | 2995 ft | 137 kts | 90° |
| 2026-05-04 01:49 | 51.47648 | -0.61061 | 3003 ft | 139 kts | 90° |
| 2026-05-04 01:49 | 51.47659 | -0.59509 | 2997 ft | 140 kts | 90° |
| 2026-05-04 01:50 | 51.47670 | -0.57950 | 2991 ft | 140 kts | 90° |
| 2026-05-04 01:50 | 51.47680 | -0.56394 | 2942 ft | 138 kts | 90° |
| 2026-05-04 01:50 | 51.47690 | -0.54820 | 2527 ft | 147 kts | 90° |
| 2026-05-04 01:50 | 51.47702 | -0.53086 | 1788 ft | 168 kts | 89° |
| 2026-05-04 01:51 | 51.47715 | -0.51187 | 1199 ft | 169 kts | 89° |
| 2026-05-04 01:51 | 51.47722 | -0.49360 | 675 ft | 166 kts | 91° |
| 2026-05-04 01:51 | 51.47743 | -0.47453 | 144 ft | 165 kts | 89° |
| 2026-05-04 01:51 | 51.47754 | -0.45753 | 95 ft | 137 kts | 89° |
| 2026-05-04 01:52 | 51.47763 | -0.44615 | 96 ft | 62 kts | 88° |